Time;durP1;ratioP1;P1;durP2;ratioP2;P2;SDS_P1;SDS_P2;PMS_P1;PMS_P2;Temp;Humidity;BMP_temperature;BMP_pressure;BME280_temperature;BME280_humidity;BME280_pressure;Samples;Min_cycle;Max_cycle;Signal;HPM_P1;HPM_P2
2020/12/17 00:01:43;;;;;;;4.00;3.25;;;28.10;76.20;;;;;;5123568;27;20231;-57
2020/12/17 00:04:14;;;;;;;4.32;3.30;;;28.20;76.10;;;;;;5121789;27;20327;-54
2020/12/17 00:06:46;;;;;;;4.13;2.97;;;28.20;75.90;;;;;;5122960;27;20231;-56
2020/12/17 00:09:16;;;;;;;4.95;3.20;;;28.20;75.70;;;;;;5118183;27;20223;-56
2020/12/17 00:11:47;;;;;;;4.45;3.25;;;28.20;75.70;;;;;;5123189;27;20680;-56
2020/12/17 00:14:18;;;;;;;4.45;3.20;;;28.20;75.50;;;;;;5122825;27;20255;-57
2020/12/17 00:16:49;;;;;;;3.60;3.30;;;28.20;75.50;;;;;;5122476;27;20319;-58
2020/12/17 00:19:19;;;;;;;4.38;3.92;;;28.20;75.50;;;;;;5118940;27;20671;-54
2020/12/17 00:21:53;;;;;;;7.72;5.03;;;28.20;75.60;;;;;;5120779;27;20231;-54
2020/12/17 00:24:23;;;;;;;6.43;4.85;;;28.30;75.60;;;;;;5122101;27;20225;-55
2020/12/17 00:26:54;;;;;;;5.57;5.07;;;28.30;75.60;;;;;;5121240;27;20246;-57
2020/12/17 00:29:25;;;;;;;7.13;4.95;;;28.30;75.70;;;;;;5122062;27;20576;-56
2020/12/17 00:31:55;;;;;;;4.97;4.45;;;28.30;75.60;;;;;;5116398;27;20227;-57
2020/12/17 00:34:25;;;;;;;6.30;4.15;;;28.30;75.80;;;;;;5112396;27;20227;-55
2020/12/17 00:36:57;;;;;;;8.13;5.10;;;28.30;75.70;;;;;;5121616;27;20219;-55
2020/12/17 00:39:28;;;;;;;8.02;7.22;;;28.40;76.00;;;;;;5121891;27;21076;-56
2020/12/17 00:41:58;;;;;;;11.35;9.77;;;28.40;76.10;;;;;;5121586;27;20240;-54
2020/12/17 00:44:29;;;;;;;13.88;9.55;;;28.40;76.20;;;;;;5121799;27;20249;-57
2020/12/17 00:46:59;;;;;;;8.80;7.65;;;28.40;76.30;;;;;;5123500;27;20309;-58
2020/12/17 00:49:30;;;;;;;8.35;6.47;;;28.50;76.50;;;;;;5121423;27;20262;-56
2020/12/17 00:52:02;;;;;;;6.55;5.40;;;28.50;76.20;;;;;;5122317;27;20243;-56
2020/12/17 00:54:33;;;;;;;5.72;5.10;;;28.60;76.20;;;;;;5122923;27;20714;-56
2020/12/17 00:57:03;;;;;;;6.90;5.07;;;28.60;76.00;;;;;;5122109;27;20231;-56
2020/12/17 00:59:34;;;;;;;7.03;5.45;;;28.60;75.90;;;;;;5121606;27;20306;-57
2020/12/17 01:02:05;;;;;;;10.85;4.82;;;28.60;75.80;;;;;;5123214;27;20287;-58
2020/12/17 01:04:35;;;;;;;4.53;3.83;;;28.70;75.60;;;;;;5122393;27;20234;-56
2020/12/17 01:07:08;;;;;;;4.63;3.58;;;28.70;75.30;;;;;;5122947;27;20243;-52
2020/12/17 01:09:38;;;;;;;4.75;3.53;;;28.80;74.80;;;;;;5121724;27;20583;-56
2020/12/17 01:12:09;;;;;;;5.75;3.50;;;28.80;74.20;;;;;;5120946;27;20239;-55
2020/12/17 01:14:39;;;;;;;4.78;3.35;;;28.90;74.30;;;;;;5120967;27;20301;-58
2020/12/17 01:17:10;;;;;;;3.70;3.33;;;28.90;74.10;;;;;;5121907;27;20254;-57
2020/12/17 01:19:41;;;;;;;3.80;3.25;;;28.90;73.50;;;;;;5122275;27;20223;-58
2020/12/17 01:22:13;;;;;;;6.10;3.78;;;28.90;73.50;;;;;;5122123;27;20733;-59
2020/12/17 01:24:44;;;;;;;4.47;3.90;;;29.00;73.00;;;;;;5119663;27;20227;-58
2020/12/17 01:27:15;;;;;;;8.00;3.97;;;29.00;72.80;;;;;;5119615;27;20231;-58
2020/12/17 01:29:45;;;;;;;5.43;4.30;;;29.10;72.50;;;;;;5119219;27;20238;-58
2020/12/17 01:32:16;;;;;;;6.07;3.80;;;29.10;72.40;;;;;;5121495;27;20240;-58
2020/12/17 01:34:47;;;;;;;5.68;4.50;;;29.10;72.60;;;;;;5119977;27;20231;-59
2020/12/17 01:37:24;;;;;;;5.25;4.40;;;29.20;72.30;;;;;;5121051;27;20787;-58
2020/12/17 01:39:55;;;;;;;4.75;4.25;;;29.20;72.00;;;;;;5120591;27;20232;-58
2020/12/17 01:42:25;;;;;;;4.90;4.05;;;29.30;73.00;;;;;;5119794;27;20724;-58
2020/12/17 01:44:56;;;;;;;5.57;3.92;;;29.30;71.60;;;;;;5122979;27;21056;-58
2020/12/17 01:47:32;;;;;;;4.28;3.58;;;29.40;71.70;;;;;;5120280;27;20231;-58
2020/12/17 01:50:04;;;;;;;4.13;3.72;;;29.40;72.00;;;;;;5120369;27;20722;-59
2020/12/17 01:52:35;;;;;;;3.88;3.42;;;29.50;72.00;;;;;;5120866;27;20238;-57
2020/12/17 01:55:06;;;;;;;4.20;3.42;;;29.50;72.10;;;;;;5118944;27;20230;-57
2020/12/17 01:57:41;;;;;;;6.32;3.92;;;29.60;72.20;;;;;;5117898;27;20257;-58
2020/12/17 02:00:12;;;;;;;4.85;4.32;;;29.60;71.60;;;;;;5118095;27;20251;-58
2020/12/17 02:02:43;;;;;;;6.05;4.72;;;29.70;71.20;;;;;;5117125;27;20237;-57
2020/12/17 02:05:13;;;;;;;7.15;4.90;;;29.80;71.40;;;;;;5118577;27;20247;-56
2020/12/17 02:07:46;;;;;;;6.47;5.80;;;29.80;71.20;;;;;;5062896;28;20228;-55
2020/12/17 02:10:17;;;;;;;7.90;5.80;;;29.90;70.90;;;;;;5062564;28;20233;-57
2020/12/17 02:12:47;;;;;;;12.40;6.78;;;30.00;70.80;;;;;;5065591;28;20424;-57
2020/12/17 02:15:18;;;;;;;9.88;7.40;;;30.00;70.80;;;;;;5066058;28;20241;-58
2020/12/17 02:17:49;;;;;;;8.55;6.57;;;30.00;71.30;;;;;;5065510;28;20594;-57
2020/12/17 02:20:19;;;;;;;8.27;6.72;;;30.10;70.60;;;;;;5063677;28;20233;-58
2020/12/17 02:22:51;;;;;;;8.30;6.70;;;30.10;71.00;;;;;;5059969;28;20229;-56
2020/12/17 02:25:23;;;;;;;6.95;5.38;;;30.20;70.70;;;;;;5062481;28;20229;-57
2020/12/17 02:27:54;;;;;;;7.82;6.03;;;30.30;70.90;;;;;;5059135;28;20679;-56
2020/12/17 02:30:24;;;;;;;6.85;5.82;;;30.40;70.60;;;;;;5059836;28;20233;-58
2020/12/17 02:32:55;;;;;;;7.00;5.75;;;30.40;70.20;;;;;;5061710;28;20310;-57
2020/12/17 02:35:26;;;;;;;7.28;5.57;;;30.50;70.40;;;;;;5058254;28;20249;-56
2020/12/17 02:37:59;;;;;;;6.28;5.13;;;30.60;69.90;;;;;;5068514;28;20308;-57
2020/12/17 02:40:30;;;;;;;6.57;4.72;;;30.60;69.30;;;;;;5119057;27;20647;-57
2020/12/17 02:43:01;;;;;;;4.97;4.43;;;30.70;69.20;;;;;;5119381;27;20695;-58
2020/12/17 02:45:32;;;;;;;4.53;4.03;;;30.80;68.70;;;;;;5118906;27;20234;-57
2020/12/17 02:48:03;;;;;;;4.80;4.00;;;30.80;68.50;;;;;;5118970;27;20302;-58
2020/12/17 02:50:33;;;;;;;4.50;3.50;;;30.90;67.60;;;;;;5118470;27;20311;-57
2020/12/17 02:53:04;;;;;;;4.85;3.80;;;31.00;67.80;;;;;;5117888;27;20268;-57
2020/12/17 02:55:35;;;;;;;4.25;3.00;;;31.00;67.50;;;;;;5119995;27;20231;-58
2020/12/17 02:58:06;;;;;;;4.03;3.30;;;31.10;66.30;;;;;;5117793;27;20233;-56
2020/12/17 03:00:37;;;;;;;5.97;3.50;;;31.20;65.80;;;;;;5109012;27;20306;-57
2020/12/17 03:03:08;;;;;;;8.95;3.50;;;31.20;65.30;;;;;;5114436;27;20237;-58
2020/12/17 03:05:38;;;;;;;5.50;3.40;;;31.30;66.10;;;;;;5098793;28;20232;-57
2020/12/17 03:08:18;;;;;;;4.65;3.65;;;31.40;65.20;;;;;;5098375;28;20597;-59
2020/12/17 03:10:50;;;;;;;5.07;3.80;;;31.40;66.00;;;;;;5100164;28;20598;-59
2020/12/17 03:13:21;;;;;;;4.75;3.72;;;31.50;65.80;;;;;;5104807;27;20244;-58
2020/12/17 03:15:52;;;;;;;4.18;3.78;;;31.60;66.10;;;;;;5106782;28;20266;-58
2020/12/17 03:18:22;;;;;;;4.25;3.85;;;31.70;65.30;;;;;;5105750;28;20231;-59
2020/12/17 03:20:53;;;;;;;6.38;4.10;;;31.70;65.00;;;;;;5104967;27;20239;-59
2020/12/17 03:23:24;;;;;;;6.07;3.78;;;31.80;64.60;;;;;;5107166;27;20231;-58
2020/12/17 03:25:56;;;;;;;5.30;3.92;;;31.90;65.20;;;;;;5105259;27;20310;-58
2020/12/17 03:28:27;;;;;;;5.43;3.90;;;31.90;64.80;;;;;;5106046;28;20232;-57
2020/12/17 03:30:58;;;;;;;4.13;3.70;;;31.90;64.50;;;;;;5103198;27;20322;-59
2020/12/17 03:33:28;;;;;;;4.05;3.60;;;32.00;63.80;;;;;;5105385;27;21058;-54
2020/12/17 03:35:59;;;;;;;5.07;3.88;;;32.10;63.90;;;;;;5104253;27;20231;-57
2020/12/17 03:38:44;;;;;;;5.18;4.07;;;32.10;63.50;;;;;;5104384;28;20628;-58
2020/12/17 03:41:18;;;;;;;4.47;3.17;;;32.20;63.20;;;;;;5106952;27;20219;-58
2020/12/17 03:43:49;;;;;;;4.18;3.35;;;32.20;63.30;;;;;;5105219;28;20779;-58
2020/12/17 03:46:19;;;;;;;4.45;3.00;;;32.30;63.30;;;;;;5105347;28;20224;-58
2020/12/17 03:48:51;;;;;;;4.18;3.13;;;32.30;63.00;;;;;;5106927;28;20236;-58
2020/12/17 03:51:21;;;;;;;3.50;2.75;;;32.40;63.20;;;;;;5107248;28;20236;-58
2020/12/17 03:53:52;;;;;;;3.00;2.60;;;32.40;63.00;;;;;;5106495;27;20893;-60
2020/12/17 03:56:24;;;;;;;3.25;2.95;;;32.50;62.70;;;;;;5106269;28;20319;-59
2020/12/17 03:58:55;;;;;;;2.50;2.30;;;32.60;62.80;;;;;;5105887;28;20234;-56
2020/12/17 04:01:26;;;;;;;3.50;2.10;;;32.60;61.90;;;;;;5103644;28;20770;-58
2020/12/17 04:03:57;;;;;;;2.72;2.17;;;32.70;62.30;;;;;;5111485;27;20231;-56
2020/12/17 04:06:27;;;;;;;3.30;2.70;;;32.80;62.60;;;;;;5125556;27;20231;-56
2020/12/17 04:09:00;;;;;;;3.20;2.35;;;32.90;61.90;;;;;;5124490;27;20776;-57
2020/12/17 04:11:32;;;;;;;2.53;2.20;;;32.90;61.90;;;;;;5122858;27;20586;-58
2020/12/17 04:14:02;;;;;;;2.38;1.85;;;33.00;61.40;;;;;;5124768;27;20933;-59
2020/12/17 04:16:32;;;;;;;3.35;1.77;;;33.10;60.70;;;;;;5126260;27;20235;-57
2020/12/17 04:19:03;;;;;;;3.63;2.67;;;33.20;62.00;;;;;;5123041;27;20609;-59
2020/12/17 04:21:34;;;;;;;3.40;1.90;;;33.20;60.10;;;;;;5123896;27;20258;-57
2020/12/17 04:24:04;;;;;;;2.55;1.90;;;33.20;60.40;;;;;;5119766;27;20261;-56
2020/12/17 04:26:36;;;;;;;2.92;2.20;;;33.30;60.00;;;;;;5120530;27;20227;-58
2020/12/17 04:29:06;;;;;;;2.33;2.05;;;33.30;59.90;;;;;;5121779;27;20251;-57
2020/12/17 04:31:37;;;;;;;2.63;2.08;;;33.30;59.90;;;;;;5120604;27;20774;-59
2020/12/17 04:34:08;;;;;;;2.45;1.90;;;33.30;59.80;;;;;;5119175;27;20284;-57
2020/12/17 04:36:38;;;;;;;2.20;2.00;;;33.30;59.70;;;;;;5120559;27;21198;-58
2020/12/17 04:39:20;;;;;;;2.10;1.90;;;33.30;59.70;;;;;;5120994;27;20220;-58
2020/12/17 04:41:52;;;;;;;2.25;1.80;;;33.40;60.00;;;;;;5120459;27;20259;-58
2020/12/17 04:44:23;;;;;;;2.65;2.20;;;33.40;60.30;;;;;;5121012;27;20231;-57
2020/12/17 04:46:57;;;;;;;4.22;2.50;;;33.40;60.40;;;;;;5121009;27;20228;-59
2020/12/17 04:49:32;;;;;;;2.40;1.98;;;33.50;60.00;;;;;;5121901;27;20222;-59
2020/12/17 04:52:03;;;;;;;2.22;2.03;;;33.50;60.40;;;;;;5065900;28;20237;-56
2020/12/17 04:54:33;;;;;;;4.05;2.33;;;33.60;60.30;;;;;;5064485;28;20225;-58
2020/12/17 04:57:11;;;;;;;3.03;2.20;;;33.60;59.70;;;;;;5065021;28;20225;-58
2020/12/17 04:59:43;;;;;;;4.10;2.47;;;33.70;59.50;;;;;;5064819;28;20237;-58
2020/12/17 05:02:14;;;;;;;3.22;2.10;;;33.70;59.20;;;;;;5065067;28;20225;-58
2020/12/17 05:04:45;;;;;;;2.80;2.50;;;33.70;59.30;;;;;;5063498;28;20328;-58
2020/12/17 05:07:16;;;;;;;3.55;2.30;;;33.80;59.10;;;;;;5064322;28;20254;-57
2020/12/17 05:09:47;;;;;;;2.58;2.15;;;33.80;59.00;;;;;;5064772;28;20237;-58
2020/12/17 05:12:20;;;;;;;3.03;2.35;;;33.80;58.90;;;;;;5064807;28;20319;-58
2020/12/17 05:14:51;;;;;;;2.92;2.38;;;33.80;59.10;;;;;;5066115;28;20252;-57
2020/12/17 05:17:21;;;;;;;2.60;1.98;;;33.90;59.20;;;;;;5112060;27;20235;-59
2020/12/17 05:19:52;;;;;;;2.67;2.30;;;33.90;58.70;;;;;;5057468;28;20233;-58
2020/12/17 05:22:23;;;;;;;3.90;2.25;;;34.00;59.20;;;;;;4996896;28;20236;-57
2020/12/17 05:24:54;;;;;;;4.47;2.35;;;34.00;59.50;;;;;;4985409;28;20247;-55
2020/12/17 05:27:25;;;;;;;2.95;2.35;;;34.10;58.90;;;;;;4985145;28;20231;-58
2020/12/17 05:29:58;;;;;;;2.28;2.08;;;34.10;59.00;;;;;;4965461;28;20240;-57
2020/12/17 05:32:28;;;;;;;2.75;2.38;;;34.20;58.80;;;;;;4964250;28;20640;-58
2020/12/17 05:34:59;;;;;;;3.08;2.65;;;34.20;58.70;;;;;;4963615;28;20335;-56
2020/12/17 05:37:30;;;;;;;4.45;2.33;;;34.30;58.60;;;;;;4926701;29;20237;-57
2020/12/17 05:40:01;;;;;;;3.35;2.15;;;34.30;58.30;;;;;;4927657;29;20273;-57
2020/12/17 05:42:32;;;;;;;6.45;2.60;;;34.40;57.90;;;;;;4928065;29;20257;-56
2020/12/17 05:45:04;;;;;;;4.22;2.10;;;34.40;57.70;;;;;;4929195;29;20236;-55
2020/12/17 05:47:34;;;;;;;2.53;2.33;;;34.40;57.70;;;;;;4925727;29;20240;-59
2020/12/17 05:50:07;;;;;;;3.47;2.67;;;34.50;57.80;;;;;;4933133;28;20225;-58
2020/12/17 05:52:38;;;;;;;3.78;2.38;;;34.50;57.60;;;;;;4933958;28;20232;-57
2020/12/17 05:55:08;;;;;;;4.20;2.90;;;34.60;57.80;;;;;;4971791;28;20337;-53
2020/12/17 05:57:49;;;;;;;3.47;2.72;;;34.60;57.00;;;;;;5001512;28;20822;-56
2020/12/17 06:00:21;;;;;;;3.90;2.95;;;34.60;57.00;;;;;;5001005;28;20239;-54
2020/12/17 06:02:52;;;;;;;4.90;2.97;;;34.70;57.60;;;;;;4961017;28;20241;-56
2020/12/17 06:05:22;;;;;;;3.40;2.67;;;34.70;57.00;;;;;;4971804;28;20237;-57
2020/12/17 06:07:53;;;;;;;3.15;2.75;;;34.80;56.80;;;;;;4926701;29;20379;-58
2020/12/17 06:10:26;;;;;;;2.90;2.60;;;34.80;57.10;;;;;;4888605;29;20223;-57
2020/12/17 06:12:58;;;;;;;4.47;3.08;;;34.90;57.10;;;;;;4888400;29;20999;-53
2020/12/17 06:15:29;;;;;;;3.58;3.28;;;34.90;56.70;;;;;;4889977;29;20299;-57
2020/12/17 06:18:00;;;;;;;6.70;3.08;;;34.90;57.00;;;;;;4905080;29;20818;-57
2020/12/17 06:20:31;;;;;;;5.47;3.45;;;35.00;56.70;;;;;;4923098;28;20221;-55
2020/12/17 06:23:02;;;;;;;3.05;2.67;;;35.00;56.70;;;;;;4952691;28;20649;-58
2020/12/17 06:25:34;;;;;;;5.25;2.92;;;35.00;56.40;;;;;;4984012;28;20252;-57
2020/12/17 06:28:06;;;;;;;3.05;2.75;;;35.10;56.00;;;;;;4985436;28;20323;-56
2020/12/17 06:30:42;;;;;;;3.03;2.60;;;35.10;55.90;;;;;;4982404;28;20705;-55
2020/12/17 06:33:13;;;;;;;3.38;3.08;;;35.10;56.40;;;;;;5033868;28;21141;-58
2020/12/17 06:35:50;;;;;;;3.25;2.85;;;35.10;56.50;;;;;;5109166;27;20302;-57
2020/12/17 06:38:23;;;;;;;3.92;3.53;;;35.10;56.30;;;;;;5116095;27;20265;-57
2020/12/17 06:40:54;;;;;;;2.95;2.67;;;35.20;56.40;;;;;;5116661;27;20230;-57
2020/12/17 06:43:43;;;;;;;3.20;2.90;;;35.20;56.10;;;;;;5117344;27;20284;-58
2020/12/17 06:46:35;;;;;;;5.35;3.10;;;35.20;56.40;;;;;;5116192;27;20297;-58
2020/12/17 06:49:06;;;;;;;2.85;2.45;;;35.20;56.10;;;;;;5116278;27;20313;-58
2020/12/17 06:51:38;;;;;;;3.58;2.67;;;35.20;55.60;;;;;;5118192;27;20234;-57
2020/12/17 06:54:09;;;;;;;4.50;2.50;;;35.20;55.90;;;;;;5116969;27;20231;-57
2020/12/17 06:56:40;;;;;;;5.65;2.55;;;35.30;56.30;;;;;;5116387;27;20722;-57
2020/12/17 06:59:21;;;;;;;3.30;2.70;;;35.30;56.20;;;;;;5013679;28;20235;-57
2020/12/17 07:01:51;;;;;;;3.42;2.55;;;35.40;56.30;;;;;;5014559;28;20654;-54
2020/12/17 07:04:52;;;;;;;5.47;2.75;;;35.40;56.30;;;;;;5014842;28;20417;-56
2020/12/17 07:07:23;;;;;;;3.22;2.60;;;35.50;56.40;;;;;;4956953;28;20236;-52
2020/12/17 07:09:54;;;;;;;3.00;2.70;;;35.50;56.10;;;;;;5004620;28;20236;-56
2020/12/17 07:12:43;;;;;;;4.90;2.95;;;35.60;55.40;;;;;;5015050;28;20265;-57
2020/12/17 07:15:36;;;;;;;3.22;2.35;;;35.60;55.30;;;;;;5014915;28;20242;-57
2020/12/17 07:18:23;;;;;;;3.45;2.80;;;35.70;54.80;;;;;;5014469;28;20308;-57
2020/12/17 07:20:54;;;;;;;4.68;2.80;;;35.70;55.30;;;;;;5010504;28;20299;-57
2020/12/17 07:23:25;;;;;;;2.70;2.50;;;35.70;55.40;;;;;;5015073;28;20304;-56
2020/12/17 07:25:55;;;;;;;6.13;3.00;;;35.70;55.10;;;;;;4965551;28;20386;-55
2020/12/17 07:28:26;;;;;;;3.33;2.97;;;35.70;54.80;;;;;;4963704;28;20351;-56
2020/12/17 07:30:59;;;;;;;3.75;2.80;;;35.70;54.20;;;;;;5029980;28;20225;-55
2020/12/17 07:33:45;;;;;;;2.80;2.60;;;35.70;54.20;;;;;;5044723;28;20324;-57
2020/12/17 07:36:16;;;;;;;3.58;3.13;;;35.70;54.50;;;;;;5044051;28;20238;-56
2020/12/17 07:38:47;;;;;;;3.58;2.80;;;35.60;54.70;;;;;;5044179;28;21502;-55
2020/12/17 07:41:25;;;;;;;5.22;2.67;;;35.70;55.10;;;;;;5043151;28;20317;-54
2020/12/17 07:43:56;;;;;;;2.60;2.40;;;35.70;54.90;;;;;;5043677;28;20272;-56
2020/12/17 07:46:40;;;;;;;6.55;2.50;;;35.70;54.90;;;;;;5044798;28;20250;-56
2020/12/17 07:49:23;;;;;;;4.15;2.75;;;35.70;54.70;;;;;;5043419;28;20291;-57
2020/12/17 07:51:54;;;;;;;2.83;2.30;;;35.80;54.60;;;;;;5096443;28;20219;-55
2020/12/17 07:54:25;;;;;;;2.63;2.38;;;35.80;54.60;;;;;;5096137;28;20228;-56
2020/12/17 07:57:00;;;;;;;2.90;2.60;;;35.90;54.40;;;;;;5096174;28;20319;-57
2020/12/17 07:59:31;;;;;;;2.63;2.42;;;35.90;54.00;;;;;;5098106;28;20586;-57
2020/12/17 08:02:03;;;;;;;4.75;2.30;;;36.00;54.50;;;;;;5101003;28;20343;-57
2020/12/17 08:04:35;;;;;;;3.35;2.13;;;36.00;54.40;;;;;;5100908;28;20261;-56
2020/12/17 08:07:09;;;;;;;2.67;2.15;;;36.00;54.20;;;;;;5101525;28;20243;-56
2020/12/17 08:09:40;;;;;;;2.08;1.88;;;36.10;54.50;;;;;;5101456;28;20234;-58
2020/12/17 08:12:12;;;;;;;2.67;2.40;;;36.20;54.00;;;;;;5101727;28;20232;-58
2020/12/17 08:14:42;;;;;;;2.45;2.25;;;36.20;53.70;;;;;;5101698;28;20236;-56
2020/12/17 08:17:14;;;;;;;3.15;2.67;;;36.20;53.80;;;;;;5102810;28;20691;-56
2020/12/17 08:19:45;;;;;;;2.60;2.40;;;36.20;53.70;;;;;;5099648;28;20232;-57
2020/12/17 08:22:15;;;;;;;3.40;2.38;;;36.20;53.30;;;;;;5101381;28;20679;-57
2020/12/17 08:24:46;;;;;;;2.92;2.40;;;36.30;53.30;;;;;;5100577;28;20224;-58
2020/12/17 08:27:17;;;;;;;3.17;2.10;;;36.20;53.30;;;;;;5101155;28;20323;-57
2020/12/17 08:29:48;;;;;;;2.30;2.10;;;36.20;53.30;;;;;;5043932;28;20243;-57
2020/12/17 08:32:20;;;;;;;2.22;1.90;;;36.20;53.40;;;;;;5044686;28;20724;-59
2020/12/17 08:34:54;;;;;;;2.60;1.85;;;36.10;53.30;;;;;;5045318;28;20783;-59
2020/12/17 08:37:26;;;;;;;2.72;2.17;;;36.20;53.90;;;;;;5046414;28;20237;-57
2020/12/17 08:40:00;;;;;;;2.20;2.00;;;36.20;54.00;;;;;;5047872;28;20729;-58
2020/12/17 08:42:34;;;;;;;2.50;2.17;;;36.20;53.80;;;;;;5047877;28;20236;-59
2020/12/17 08:45:04;;;;;;;5.15;2.83;;;36.30;54.00;;;;;;5047391;28;20247;-58
2020/12/17 08:47:40;;;;;;;2.38;2.17;;;36.40;53.60;;;;;;5043781;28;20229;-56
2020/12/17 08:50:10;;;;;;;2.47;2.28;;;36.40;53.10;;;;;;5040791;28;20234;-56
2020/12/17 08:52:42;;;;;;;4.43;2.30;;;36.50;53.30;;;;;;5041200;28;20316;-59
2020/12/17 08:55:12;;;;;;;4.15;2.78;;;36.50;53.30;;;;;;5087178;27;20310;-57
2020/12/17 08:57:43;;;;;;;2.90;2.10;;;36.50;53.30;;;;;;5100024;28;20236;-59
2020/12/17 09:00:19;;;;;;;2.85;2.20;;;36.50;53.30;;;;;;5101208;28;20236;-59
2020/12/17 09:02:58;;;;;;;3.00;2.10;;;36.50;53.80;;;;;;5098859;28;20227;-58
2020/12/17 09:05:29;;;;;;;2.85;2.15;;;36.50;54.00;;;;;;5099998;28;20231;-56
2020/12/17 09:08:00;;;;;;;2.50;2.30;;;36.50;54.10;;;;;;5100226;28;20238;-59
2020/12/17 09:10:35;;;;;;;3.47;2.42;;;36.50;53.50;;;;;;5096956;28;20240;-58
2020/12/17 09:13:06;;;;;;;3.03;2.42;;;36.50;53.30;;;;;;5098335;28;20231;-58
2020/12/17 09:15:37;;;;;;;5.68;3.70;;;36.50;53.60;;;;;;5099512;28;20588;-58
2020/12/17 09:18:12;;;;;;;5.22;4.10;;;36.50;54.50;;;;;;5097609;28;20245;-57
2020/12/17 09:20:42;;;;;;;6.28;3.50;;;36.50;54.40;;;;;;5098819;28;20227;-58
2020/12/17 09:23:13;;;;;;;4.88;3.75;;;36.50;55.30;;;;;;5094493;27;20781;-58
2020/12/17 09:25:44;;;;;;;4.57;3.22;;;36.50;54.90;;;;;;5095418;28;21635;-58
2020/12/17 09:28:22;;;;;;;4.50;3.97;;;36.40;55.00;;;;;;5096055;28;20301;-57
2020/12/17 09:30:53;;;;;;;4.40;4.00;;;36.30;54.90;;;;;;5101172;28;20279;-58
2020/12/17 09:33:25;;;;;;;6.45;3.90;;;36.10;55.10;;;;;;5099730;28;20637;-58
2020/12/17 09:35:56;;;;;;;4.22;3.42;;;36.10;55.40;;;;;;5089220;28;20242;-56
2020/12/17 09:38:27;;;;;;;4.78;3.85;;;36.00;55.60;;;;;;5099859;28;20553;-57
2020/12/17 09:41:00;;;;;;;4.68;3.40;;;35.90;55.80;;;;;;5099551;28;20326;-55
2020/12/17 09:43:30;;;;;;;5.03;3.33;;;35.70;56.10;;;;;;5101020;28;20228;-57
2020/12/17 09:46:07;;;;;;;3.90;3.15;;;35.60;56.30;;;;;;5100269;28;20231;-57
2020/12/17 09:48:42;;;;;;;6.00;3.53;;;35.50;56.90;;;;;;5099412;28;20235;-55
2020/12/17 09:51:21;;;;;;;4.75;3.67;;;35.50;57.00;;;;;;5093330;28;20223;-58
2020/12/17 09:54:02;;;;;;;4.68;4.20;;;35.40;57.20;;;;;;5101633;28;20334;-55
2020/12/17 09:56:33;;;;;;;5.78;4.05;;;35.30;57.50;;;;;;5097710;28;20255;-55
2020/12/17 09:59:03;;;;;;;5.80;4.40;;;35.20;57.50;;;;;;5098606;28;20255;-56
2020/12/17 10:01:53;;;;;;;8.32;3.92;;;35.10;57.70;;;;;;5098126;28;20225;-56
2020/12/17 10:04:26;;;;;;;8.20;3.90;;;35.10;57.80;;;;;;5015393;28;20272;-57
2020/12/17 10:06:57;;;;;;;6.93;3.85;;;35.00;57.90;;;;;;5024435;28;20335;-58
2020/12/17 10:09:28;;;;;;;5.25;4.20;;;34.90;58.00;;;;;;5024434;28;20752;-57
2020/12/17 10:11:59;;;;;;;5.72;4.30;;;34.80;58.30;;;;;;5023596;28;20238;-57
2020/12/17 10:14:29;;;;;;;4.97;3.75;;;34.80;58.60;;;;;;5024969;28;20304;-55
2020/12/17 10:17:01;;;;;;;5.20;4.45;;;34.70;58.60;;;;;;5023945;28;20245;-56
2020/12/17 10:19:32;;;;;;;7.72;4.70;;;34.60;58.90;;;;;;5024184;28;20253;-54
2020/12/17 10:22:03;;;;;;;6.47;4.90;;;34.50;59.40;;;;;;5020692;28;20290;-56
2020/12/17 10:24:34;;;;;;;5.80;4.40;;;34.40;59.50;;;;;;5025558;28;20230;-56
2020/12/17 10:27:04;;;;;;;5.20;4.38;;;34.30;59.60;;;;;;5024593;28;20313;-58
2020/12/17 10:29:35;;;;;;;7.15;4.25;;;34.30;59.70;;;;;;5056957;28;20343;-57
2020/12/17 10:32:06;;;;;;;6.80;3.92;;;34.20;59.80;;;;;;5061645;28;20237;-53
2020/12/17 10:34:38;;;;;;;7.03;3.80;;;34.10;60.00;;;;;;5071399;27;20312;-55
2020/12/17 10:37:08;;;;;;;6.88;4.57;;;34.10;60.30;;;;;;5117740;27;20263;-57
2020/12/17 10:39:39;;;;;;;5.65;4.28;;;34.00;60.30;;;;;;5118290;27;20721;-57
2020/12/17 10:42:10;;;;;;;4.55;4.15;;;34.00;60.50;;;;;;5118167;27;20231;-57
2020/12/17 10:44:40;;;;;;;5.85;3.85;;;33.90;60.60;;;;;;5118505;27;20700;-55
2020/12/17 10:47:11;;;;;;;4.05;3.53;;;33.90;61.30;;;;;;5118407;27;20238;-55
2020/12/17 10:49:43;;;;;;;9.20;5.78;;;33.90;61.90;;;;;;5117500;27;20680;-57
2020/12/17 10:52:14;;;;;;;5.38;4.65;;;33.90;61.90;;;;;;5118605;27;20231;-55
2020/12/17 10:54:45;;;;;;;9.55;7.88;;;33.80;61.40;;;;;;5119356;27;20651;-56
2020/12/17 10:57:21;;;;;;;11.13;8.05;;;33.90;62.00;;;;;;5118107;27;20231;-57
2020/12/17 10:59:51;;;;;;;15.23;9.98;;;33.90;61.90;;;;;;5117762;27;20235;-57
2020/12/17 11:02:22;;;;;;;12.38;9.70;;;33.80;61.90;;;;;;5117816;27;20252;-55
2020/12/17 11:04:54;;;;;;;16.60;12.30;;;33.80;61.90;;;;;;5118425;27;20284;-56
2020/12/17 11:07:25;;;;;;;25.88;19.50;;;33.70;62.10;;;;;;5118108;27;20239;-53
2020/12/17 11:09:56;;;;;;;21.38;16.38;;;33.70;62.10;;;;;;5117933;28;20238;-54
2020/12/17 11:12:26;;;;;;;19.55;15.57;;;33.70;62.10;;;;;;5116580;28;20254;-51
2020/12/17 11:14:58;;;;;;;21.50;17.92;;;33.70;62.10;;;;;;5117714;28;20234;-58
2020/12/17 11:17:31;;;;;;;18.85;14.55;;;33.60;62.00;;;;;;5118113;28;20289;-56
2020/12/17 11:20:08;;;;;;;12.75;9.85;;;33.60;62.80;;;;;;5116933;28;20285;-55
2020/12/17 11:22:50;;;;;;;9.63;7.57;;;33.60;63.40;;;;;;5117731;28;20235;-57
2020/12/17 11:25:21;;;;;;;11.88;6.60;;;33.60;63.90;;;;;;5116983;28;20313;-57
2020/12/17 11:27:52;;;;;;;7.72;5.90;;;33.60;64.20;;;;;;5119421;27;20234;-57
2020/12/17 11:30:26;;;;;;;7.38;5.60;;;33.50;64.20;;;;;;5117394;28;20238;-56
2020/12/17 11:32:57;;;;;;;7.82;5.72;;;33.50;64.10;;;;;;5118094;27;20241;-56
2020/12/17 11:35:28;;;;;;;7.00;5.55;;;33.50;64.20;;;;;;5122357;27;20234;-57
2020/12/17 11:37:59;;;;;;;7.20;5.72;;;33.50;64.50;;;;;;5121498;27;20237;-55
2020/12/17 11:40:30;;;;;;;8.20;5.60;;;33.50;64.40;;;;;;5122003;27;20238;-56
2020/12/17 11:43:01;;;;;;;9.38;5.80;;;33.50;64.40;;;;;;5121244;27;20309;-56
2020/12/17 11:45:32;;;;;;;7.63;5.57;;;33.50;64.20;;;;;;5122448;27;20303;-57
2020/12/17 11:48:03;;;;;;;9.02;5.40;;;33.50;64.10;;;;;;5122178;27;20318;-56
2020/12/17 11:50:35;;;;;;;10.75;5.38;;;33.40;64.00;;;;;;5122044;27;20232;-56
2020/12/17 11:53:05;;;;;;;7.65;4.93;;;33.40;64.20;;;;;;5121858;27;20235;-56
2020/12/17 11:55:36;;;;;;;7.28;5.22;;;33.40;64.30;;;;;;5121819;27;20235;-58
2020/12/17 11:58:06;;;;;;;6.47;5.75;;;33.30;64.50;;;;;;5121185;27;20242;-55
2020/12/17 12:00:37;;;;;;;7.97;5.90;;;33.30;64.40;;;;;;5121468;27;20235;-56
2020/12/17 12:03:08;;;;;;;6.82;5.78;;;33.30;64.60;;;;;;5120898;27;20223;-56
2020/12/17 12:05:40;;;;;;;9.75;6.13;;;33.30;65.00;;;;;;5121312;27;20318;-56
2020/12/17 12:08:11;;;;;;;7.63;5.38;;;33.20;65.00;;;;;;5120843;27;21075;-58
2020/12/17 12:10:42;;;;;;;7.40;5.38;;;33.20;65.00;;;;;;5121267;27;20276;-57
2020/12/17 12:13:13;;;;;;;10.65;5.75;;;33.20;65.00;;;;;;5121497;27;20240;-56
2020/12/17 12:15:43;;;;;;;5.10;4.60;;;33.10;65.00;;;;;;5120128;27;20300;-57
2020/12/17 12:18:15;;;;;;;7.28;5.35;;;33.10;64.80;;;;;;5121280;27;20305;-53
2020/12/17 12:20:47;;;;;;;5.80;4.65;;;33.10;65.10;;;;;;5120459;27;20610;-56
2020/12/17 12:23:18;;;;;;;5.60;4.57;;;33.00;65.20;;;;;;5121825;27;20241;-57
2020/12/17 12:25:48;;;;;;;6.82;5.18;;;33.00;65.10;;;;;;5121228;27;20235;-58
2020/12/17 12:28:18;;;;;;;5.90;5.07;;;33.00;65.10;;;;;;5120745;27;20236;-58
2020/12/17 12:30:49;;;;;;;7.05;5.05;;;32.90;65.20;;;;;;5120408;27;20264;-59
2020/12/17 12:33:23;;;;;;;6.25;4.47;;;32.90;65.50;;;;;;5120864;27;20235;-55
2020/12/17 12:35:57;;;;;;;7.30;5.03;;;32.90;65.50;;;;;;5082585;27;20259;-54
2020/12/17 12:38:28;;;;;;;6.80;4.75;;;32.90;65.60;;;;;;5120025;27;20360;-55
2020/12/17 12:41:00;;;;;;;5.68;4.25;;;32.80;65.30;;;;;;5120766;27;20245;-57
2020/12/17 12:43:33;;;;;;;8.85;6.15;;;32.80;65.40;;;;;;5120703;27;20219;-57
2020/12/17 12:46:04;;;;;;;8.73;6.50;;;32.80;65.60;;;;;;5109581;27;20231;-57
2020/12/17 12:48:35;;;;;;;6.65;5.75;;;32.70;65.50;;;;;;5120658;27;20301;-56
2020/12/17 12:51:07;;;;;;;7.75;5.60;;;32.80;65.70;;;;;;5120538;27;20280;-57
2020/12/17 12:53:38;;;;;;;6.13;5.47;;;32.70;65.70;;;;;;5120682;27;20235;-57
2020/12/17 12:56:09;;;;;;;6.22;5.13;;;32.70;65.20;;;;;;5120966;27;20963;-55
2020/12/17 12:58:39;;;;;;;5.07;4.30;;;32.70;65.00;;;;;;5120337;27;20223;-56
2020/12/17 13:01:10;;;;;;;4.25;3.85;;;32.60;64.60;;;;;;5119900;27;20227;-55
2020/12/17 13:03:40;;;;;;;5.78;3.83;;;32.60;64.40;;;;;;5119954;27;20246;-58
2020/12/17 13:06:16;;;;;;;5.57;3.72;;;32.50;64.20;;;;;;5119999;27;20235;-55
2020/12/17 13:08:49;;;;;;;6.70;4.00;;;32.50;64.20;;;;;;5120356;27;20231;-57
2020/12/17 13:11:20;;;;;;;6.25;3.55;;;32.50;64.10;;;;;;5056481;28;20233;-58